»·PEaware :: N416JK KRYN-KSAD

N416JK :: KRYN-KSAD

FLIGHT INFORMATION

Flight Status: Arrived
Operator: Privately registered:
United States
More flights under this callsign
Pilot: John K. (4202)
Aircraft: PIPER PA-46-310/350P MALIBU MIRAGE
(PA46)
More flights by this aircraft type
Origin: KRYN Ryan
United States
Destination: KSAD Safford Regl
United States
More flights between these airports :: More routes between these airports
Route: +TUS T310 SSO
File this flight plan on PilotEdge
Remarks:
Altitude:
(Current/Filed)
11,000ft
Speed:
(Current/Filed)
180kts
Departed: 27-Oct-20 10:07 AM
Arrived: 27-Oct-20 11:03 AM
Distance/Time
Traveled:
89nm/0:56
Distance/Time
To Go:
Arrived

Flight Plot

Page will automatically refresh every two minutes.

Flight plan parsing failed; only flown route is shown


Map Options




Map Legend


Flown Route
Filed Route
Departure Airport
Arrival Airport
Navaid (VOR, NDB)
Fix

Horizontal Profiles

Position Reports

Time Latitude Longitude Heading Altitude Ground
Speed
27-Oct-20 09:42 32.138913 -111.174150 37 2408ft 0kts
27-Oct-20 09:46 32.138913 -111.174150 37 2408ft 0kts
27-Oct-20 09:47 32.138913 -111.174150 37 2408ft 0kts
27-Oct-20 09:48 32.138913 -111.174150 37 2408ft 0kts
27-Oct-20 09:49 32.138973 -111.174089 37 2408ft 0kts
27-Oct-20 09:50 32.138973 -111.174089 37 2408ft 0kts
27-Oct-20 09:54 32.139051 -111.174189 253 2407ft 0kts
27-Oct-20 09:55 32.139051 -111.174189 253 2407ft 0kts
27-Oct-20 09:56 32.139051 -111.174189 253 2407ft 0kts
27-Oct-20 09:57 32.139051 -111.174189 253 2407ft 0kts
27-Oct-20 09:58 32.138560 -111.175817 246 2407ft 10kts
27-Oct-20 09:59 32.140310 -111.177553 348 2401ft 10kts
27-Oct-20 10:00 32.144405 -111.178611 4 2390ft 14kts
27-Oct-20 10:01 32.144942 -111.178613 327 2388ft 0kts
27-Oct-20 10:02 32.145287 -111.178719 349 2388ft 2kts
27-Oct-20 10:03 32.145487 -111.178787 341 2387ft 0kts
27-Oct-20 10:04 32.145539 -111.179280 260 2387ft 4kts
27-Oct-20 10:05 32.145516 -111.179421 258 2386ft 0kts
27-Oct-20 10:06 32.136150 -111.178746 180 2555ft 98kts
27-Oct-20 10:07 32.128368 -111.155016 67 4065ft 110kts
27-Oct-20 10:08 32.130172 -111.107706 98 4823ft 159kts
27-Oct-20 10:09 32.120987 -111.055574 99 5731ft 163kts
27-Oct-20 10:10 32.111645 -111.003821 98 6630ft 160kts
27-Oct-20 10:11 32.102351 -110.952419 98 7538ft 160kts
27-Oct-20 10:12 32.090432 -110.904343 112 8696ft 148kts
27-Oct-20 10:13 32.071505 -110.863260 113 9882ft 139kts
27-Oct-20 10:14 32.053282 -110.824238 110 10968ft 142kts
27-Oct-20 10:15 32.030126 -110.774348 113 10991ft 196kts
27-Oct-20 10:16 32.002691 -110.715608 116 10984ft 210kts
27-Oct-20 10:17 31.974171 -110.655094 116 10984ft 211kts
27-Oct-20 10:18 31.945909 -110.594178 116 10984ft 211kts
27-Oct-20 10:19 31.917419 -110.533432 116 10966ft 212kts
27-Oct-20 10:20 31.899686 -110.470196 78 10966ft 205kts
27-Oct-20 10:21 31.910679 -110.404635 73 10962ft 203kts
27-Oct-20 10:22 31.923144 -110.339843 73 10974ft 203kts
27-Oct-20 10:23 31.935616 -110.275318 73 10969ft 201kts
27-Oct-20 10:24 31.947994 -110.211674 74 10969ft 197kts
27-Oct-20 10:25 31.959928 -110.149231 74 10970ft 194kts
27-Oct-20 10:26 31.971713 -110.087659 74 10970ft 191kts
27-Oct-20 10:27 31.983257 -110.027271 74 10970ft 187kts
27-Oct-20 10:28 31.994644 -109.967559 74 10971ft 186kts
27-Oct-20 10:29 32.006007 -109.907787 74 10971ft 187kts
27-Oct-20 10:30 32.017437 -109.847478 74 10971ft 188kts
27-Oct-20 10:31 32.028820 -109.787251 74 10971ft 189kts
27-Oct-20 10:32 32.047964 -109.730586 58 10972ft 186kts
27-Oct-20 10:33 32.073969 -109.677684 57 11036ft 186kts
27-Oct-20 10:34 32.099691 -109.624060 57 11036ft 188kts
27-Oct-20 10:36 32.125329 -109.570133 57 11037ft 188kts
27-Oct-20 10:37 32.149804 -109.518521 57 11035ft 173kts
27-Oct-20 10:38 32.172274 -109.471115 57 11035ft 159kts
27-Oct-20 10:39 32.193111 -109.427104 57 11035ft 147kts
27-Oct-20 10:40 32.212428 -109.386270 56 11039ft 140kts
27-Oct-20 10:41 32.232003 -109.344880 57 11038ft 147kts
27-Oct-20 10:42 32.252244 -109.301937 57 11037ft 151kts
27-Oct-20 10:43 32.277656 -109.272294 350 11043ft 127kts
27-Oct-20 10:44 32.313684 -109.281143 343 10386ft 162kts
27-Oct-20 10:45 32.357980 -109.291110 354 10343ft 105kts
27-Oct-20 10:46 32.386823 -109.296507 354 9280ft 123kts
27-Oct-20 10:47 32.422020 -109.310516 341 8217ft 152kts
27-Oct-20 10:48 32.460925 -109.330112 334 7415ft 130kts
27-Oct-20 10:49 32.489858 -109.340574 353 7302ft 91kts
27-Oct-20 10:50 32.514962 -109.348770 349 7337ft 136kts
27-Oct-20 10:51 32.551727 -109.361631 348 7323ft 163kts
27-Oct-20 10:51 32.585034 -109.373411 349 7306ft 130kts
27-Oct-20 10:53 32.622335 -109.386291 350 7323ft 122kts
27-Oct-20 10:53 32.649123 -109.400097 323 7323ft 134kts
27-Oct-20 10:55 32.684254 -109.438467 322 6808ft 170kts
27-Oct-20 10:55 32.710171 -109.466810 306 6876ft 158kts
27-Oct-20 10:56 32.740339 -109.505101 319 6073ft 131kts
27-Oct-20 10:57 32.761620 -109.529483 316 5510ft 92kts
27-Oct-20 10:58 32.780361 -109.551294 315 5032ft 104kts
27-Oct-20 11:00 32.806121 -109.581157 314 4313ft 113kts
27-Oct-20 11:00 32.822679 -109.600369 313 3846ft 88kts
27-Oct-20 11:01 32.840158 -109.620103 313 3417ft 87kts
27-Oct-20 11:02 32.851819 -109.634055 309 3170ft 19kts
27-Oct-20 11:03 32.851282 -109.635888 32 3168ft 0kts
27-Oct-20 11:04 32.851282 -109.635888 32 3168ft 0kts

Navigation Log

Ident Type
Flight plan parsing failed, navigation log unavailable